Garden Hill, Illinois
Current Conditions -  °F | °C
As of 12:15 AM on Wednesday 22 Oct 2014 (Local Time) from KFOA Reporting Station
Clear Clear  
Wind Chill:   Ceiling: Unl
Heat Index:   Visibility: 10mi
Dew Point:   Wind: 6mph
Humidity: 81%   Direction: 30°NNE
Pressure: 30.22"   Gusts: NA
Location:  38.6949°N, 88.6407°W
Report Text: KFOA 220515Z AUTO 03005KT 10SM CLR 09/06 A3022 RMK AO2 T00860055
Loading
Personal Weather Stations






























Interactive Weather Map
Tropical Storm Tracking
New forecast layout! Learn more

10-Day Weather Forecast

Advertisements
Track Severe Weather on mobile